Egeland, North Dakota
Current Conditions -  °F | °C
As of 12:35 PM on Sunday 21 Dec 2014 (Local Time) from K9D7 Reporting Station
Overcast Overcast  
Wind Chill: 13°   Ceiling: 500
Heat Index: 25°   Visibility: 8mi
Dew Point: 25°   Wind: 13mph
Humidity: 100%   Direction: 140°SE
Pressure: 29.55"   Gusts: NA
Location:  48.63°N, 99.1°W
Report Text: K9D7 211835Z AUTO 14011KT 8SM BKN005 BKN070 OVC090 M04/M04 A2955 RMK AO2
Loading
Personal Weather Stations






























Interactive Weather Map New forecast layout! Learn more

10-Day Weather Forecast

Advertisements
Track Severe Weather on mobile